Time;durP1;ratioP1;P1;durP2;ratioP2;P2;SDS_P1;SDS_P2;PMS_P1;PMS_P2;Temp;Humidity;BMP_temperature;BMP_pressure;BME280_temperature;BME280_humidity;BME280_pressure;Samples;Min_cycle;Max_cycle;Signal;HPM_P1;HPM_P2
2022/10/09 00:01:36;;;;;;;1.35;0.47;;;8.90;99.90;;;;;;4876828;29;20077;-86
2022/10/09 01:26:32;;;;;;;3.03;0.85;;;9.00;99.90;;;;;;4784611;29;20068;-86
2022/10/09 01:29:35;;;;;;;4.72;1.00;;;9.00;99.90;;;;;;4780876;29;20165;-86
2022/10/09 01:33:18;;;;;;;1.98;0.80;;;9.00;99.90;;;;;;4774370;30;20116;-86
2022/10/09 01:44:48;;;;;;;3.70;0.70;;;8.90;99.90;;;;;;4727124;30;20056;-87
2022/10/09 02:07:58;;;;;;;4.32;0.60;;;8.70;99.90;;;;;;4648631;30;20121;-86
2022/10/09 02:11:20;;;;;;;;;;;;;;;;;;;;;
2022/10/09 02:14:45;;;;;;;;;;;;;;;;;;;;;
2022/10/09 02:38:02;;;;;;;1.10;0.60;;;7.60;99.90;;;;;;4842114;29;20060;-89
2022/10/09 02:49:27;;;;;;;;;;;8.50;99.90;;;;;;4734316;30;20051;-86
2022/10/09 02:56:24;;;;;;;3.22;0.73;;;8.40;99.90;;;;;;4712060;30;20229;-86
2022/10/09 03:11:57;;;;;;;1.40;0.70;;;8.30;99.90;;;;;;4725760;30;20199;-86
2022/10/09 03:19:24;;;;;;;2.20;0.75;;;8.10;99.90;;;;;;4730943;30;20132;-86
2022/10/09 03:26:46;;;;;;;1.83;0.70;;;7.90;99.90;;;;;;4715487;30;20076;-87
2022/10/09 03:34:46;;;;;;;0.77;0.47;;;7.70;99.90;;;;;;4709566;30;20115;-88
2022/10/09 03:42:17;;;;;;;;;;;;;;;;;;;;;
2022/10/09 03:49:41;;;;;;;0.77;0.40;;;7.80;99.90;;;;;;4677955;30;20115;-86
2022/10/09 03:53:39;;;;;;;1.75;0.47;;;7.40;99.90;;;;;;4690641;30;20444;-87
2022/10/09 03:57:35;;;;;;;0.52;0.40;;;7.30;99.90;;;;;;4715037;30;20049;-87
2022/10/09 04:05:12;;;;;;;;;;;;;;;;;;;;;
2022/10/09 04:12:56;;;;;;;;;;;;;;;;;;;;;
2022/10/09 04:20:23;;;;;;;2.97;0.40;;;7.00;99.90;;;;;;4689326;30;20041;-87
2022/10/09 04:45:38;;;;;;;1.95;0.50;;;6.90;99.90;;;;;;4700111;30;20199;-87
2022/10/09 04:58:09;;;;;;;;;;;;;;;;;;;;;
2022/10/09 05:04:56;;;;;;;1.35;0.38;;;6.90;99.90;;;;;;4857755;29;20567;-86
2022/10/09 05:08:41;;;;;;;0.32;0.30;;;6.70;99.90;;;;;;4785158;29;20120;-87
2022/10/09 05:24:07;;;;;;;;;;;;;;;;;;;;;
2022/10/09 05:28:11;;;;;;;;;;;;;;;;;;;;;
2022/10/09 05:47:16;;;;;;;0.75;0.75;;;6.10;99.90;;;;;;4839437;29;20100;-87
2022/10/09 05:54:46;;;;;;;;;;;;;;;;;;;;;
2022/10/09 05:58:25;;;;;;;1.92;0.50;;;5.80;99.90;;;;;;4787492;29;20581;-87
2022/10/09 06:02:03;;;;;;;0.55;0.47;;;5.80;99.90;;;;;;4737495;30;20150;-87
2022/10/09 06:09:15;;;;;;;0.47;0.30;;;5.80;99.90;;;;;;4700422;30;20100;-87
2022/10/09 06:12:13;;;;;;;0.47;0.40;;;5.80;99.90;;;;;;4666435;30;20115;-87
2022/10/09 06:15:32;;;;;;;0.47;0.40;;;5.80;99.90;;;;;;4666879;30;20057;-86
2022/10/09 06:22:14;;;;;;;0.85;0.40;;;5.80;99.90;;;;;;4665806;30;20046;-86
2022/10/09 06:25:41;;;;;;;0.73;0.47;;;5.80;99.90;;;;;;4667162;30;20042;-87
2022/10/09 06:32:55;;;;;;;;;;;;;;;;;;;;;
2022/10/09 06:36:49;;;;;;;1.80;0.70;;;5.40;99.90;;;;;;4771017;23;20152;-87
2022/10/09 06:44:17;;;;;;;0.77;0.60;;;4.70;99.90;;;;;;4919959;29;20058;-88
2022/10/09 06:47:44;;;;;;;1.83;1.02;;;6.00;99.90;;;;;;4888031;29;20057;-86
2022/10/09 06:50:39;;;;;;;1.35;1.00;;;6.00;99.90;;;;;;4877251;29;20101;-87
2022/10/09 06:57:50;;;;;;;2.45;0.93;;;6.10;99.90;;;;;;4882370;29;20092;-87
2022/10/09 07:01:02;;;;;;;1.40;0.85;;;6.20;99.90;;;;;;4823596;29;20110;-85
2022/10/09 07:04:37;;;;;;;1.65;0.90;;;6.30;99.90;;;;;;4822776;29;20102;-87
2022/10/09 07:08:20;;;;;;;1.20;0.77;;;6.40;99.90;;;;;;4793667;30;20151;-86
2022/10/09 07:11:41;;;;;;;;;;;;;;;;;;;;;
2022/10/09 07:14:50;;;;;;;3.00;0.80;;;6.80;99.90;;;;;;4735039;30;20072;-87
2022/10/09 07:18:14;;;;;;;1.30;0.90;;;6.90;99.90;;;;;;4738623;30;20109;-90
2022/10/09 07:21:34;;;;;;;1.13;1.02;;;6.90;99.90;;;;;;4713983;30;20091;-86
2022/10/09 07:25:00;;;;;;;1.40;0.88;;;7.20;99.90;;;;;;4721697;30;20087;-86
2022/10/09 07:28:39;;;;;;;2.17;0.82;;;7.40;99.90;;;;;;4733538;30;20082;-86
2022/10/09 07:31:55;;;;;;;1.30;0.70;;;7.60;99.90;;;;;;4712653;30;20084;-88
2022/10/09 07:34:42;;;;;;;;;;;7.70;99.90;;;;;;4714089;30;20068;-86
2022/10/09 07:37:14;;;;;;;2.33;0.75;;;7.90;99.90;;;;;;4669273;30;19944;-87
2022/10/09 07:39:45;;;;;;;2.20;0.75;;;8.10;99.90;;;;;;4680680;30;20062;-86
2022/10/09 07:42:12;;;;;;;4.60;1.23;;;8.30;99.90;;;;;;4671513;30;20068;-88
2022/10/09 07:44:43;;;;;;;3.63;0.98;;;8.40;99.90;;;;;;4715576;30;20060;-85
2022/10/09 07:47:12;;;;;;;3.17;0.95;;;8.50;99.90;;;;;;4691888;30;20191;-85
2022/10/09 07:49:43;;;;;;;4.18;0.88;;;8.70;99.90;;;;;;4707158;30;20148;-86
2022/10/09 07:52:10;;;;;;;1.95;0.90;;;8.80;99.90;;;;;;4750358;30;20052;-83
2022/10/09 07:54:40;;;;;;;1.52;0.77;;;8.90;99.90;;;;;;4750250;30;20056;-84
2022/10/09 07:57:13;;;;;;;3.85;1.30;;;9.10;99.90;;;;;;4750079;30;20063;-85
2022/10/09 07:59:40;;;;;;;3.28;1.13;;;9.20;99.90;;;;;;4753606;30;20044;-87
2022/10/09 08:02:14;;;;;;;2.03;1.02;;;9.30;99.90;;;;;;4749365;30;20048;-86
2022/10/09 08:04:51;;;;;;;2.33;1.20;;;9.40;99.90;;;;;;4750341;30;20087;-87
2022/10/09 08:07:25;;;;;;;1.63;0.90;;;9.50;99.90;;;;;;4770547;29;20084;-86
2022/10/09 08:10:02;;;;;;;1.50;1.10;;;9.60;99.90;;;;;;4857812;29;20045;-85
2022/10/09 08:12:32;;;;;;;2.03;0.98;;;9.80;99.90;;;;;;4853508;29;20085;-89
2022/10/09 08:15:04;;;;;;;2.13;1.33;;;9.90;99.90;;;;;;4840633;29;20064;-85
2022/10/09 08:17:33;;;;;;;0.80;0.80;;;10.00;99.90;;;;;;4841758;29;20546;-84
2022/10/09 08:20:05;;;;;;;4.43;0.80;;;10.10;99.90;;;;;;4840877;29;20049;-86
2022/10/09 08:22:42;;;;;;;1.83;1.00;;;10.20;99.90;;;;;;4840652;29;20587;-85
2022/10/09 08:25:20;;;;;;;2.08;1.20;;;10.30;99.90;;;;;;4842638;29;20427;-84
2022/10/09 08:27:58;;;;;;;1.92;1.00;;;10.40;99.90;;;;;;4846497;29;20045;-86
2022/10/09 08:30:28;;;;;;;2.70;1.35;;;10.50;99.90;;;;;;4856044;29;20518;-88
2022/10/09 08:33:33;;;;;;;5.07;1.10;;;10.60;99.90;;;;;;4843317;29;20591;-90
2022/10/09 08:37:39;;;;;;;3.17;1.30;;;10.70;99.90;;;;;;4845325;29;20061;-90
2022/10/09 08:41:00;;;;;;;1.67;0.70;;;10.90;99.90;;;;;;4855877;29;20053;-86
2022/10/09 08:44:31;;;;;;;3.97;1.10;;;11.10;99.90;;;;;;4857691;29;20085;-87
2022/10/09 08:48:18;;;;;;;1.50;0.70;;;11.20;99.90;;;;;;4750773;30;20056;-89
2022/10/09 08:51:53;;;;;;;;;;;;;;;;;;;;;
2022/10/09 08:55:03;;;;;;;2.08;0.80;;;11.70;99.90;;;;;;4717770;30;20072;-89
2022/10/09 09:12:53;;;;;;;1.52;0.47;;;12.60;99.90;;;;;;4773859;29;20020;-88
2022/10/09 09:15:34;;;;;;;4.35;0.60;;;12.80;99.90;;;;;;4796972;29;20059;-86
2022/10/09 09:18:42;;;;;;;1.33;0.40;;;12.90;99.90;;;;;;4796968;29;20119;-85
2022/10/09 09:24:54;;;;;;;1.70;0.47;;;13.20;99.90;;;;;;4805015;29;20094;-87
2022/10/09 09:27:42;;;;;;;3.13;0.63;;;13.30;99.90;;;;;;4816918;29;20041;-87
2022/10/09 09:30:17;;;;;;;2.05;0.57;;;13.40;99.90;;;;;;4872562;29;20049;-88
2022/10/09 09:33:03;;;;;;;5.03;0.57;;;13.50;99.90;;;;;;4881168;29;20444;-87
2022/10/09 09:35:57;;;;;;;3.00;0.50;;;13.70;99.90;;;;;;4846643;29;20061;-86
2022/10/09 09:38:34;;;;;;;2.80;0.50;;;13.90;99.90;;;;;;4851453;29;20126;-87
2022/10/09 09:41:09;;;;;;;3.00;0.50;;;13.90;99.90;;;;;;4880692;29;20052;-86
2022/10/09 09:44:09;;;;;;;2.92;0.40;;;14.00;99.90;;;;;;4880716;29;20139;-87
2022/10/09 09:46:46;;;;;;;0.55;0.38;;;14.10;99.90;;;;;;4879951;29;20053;-86
2022/10/09 09:49:34;;;;;;;3.47;0.68;;;14.20;99.90;;;;;;4864436;29;20099;-86
2022/10/09 09:52:18;;;;;;;2.90;0.57;;;14.40;99.90;;;;;;4878454;29;20107;-86
2022/10/09 09:54:56;;;;;;;2.13;0.60;;;14.40;99.90;;;;;;4864142;29;20094;-87
2022/10/09 09:57:44;;;;;;;3.78;0.57;;;14.50;99.90;;;;;;4887085;29;20053;-91
2022/10/09 10:00:59;;;;;;;;;;;;;;;;;;;;;
2022/10/09 10:03:49;;;;;;;4.70;0.40;;;14.60;99.90;;;;;;4887794;29;20120;-87
2022/10/09 10:07:25;;;;;;;5.65;0.85;;;14.70;99.90;;;;;;4885119;29;20545;-87
2022/10/09 10:10:56;;;;;;;2.60;0.40;;;14.80;99.90;;;;;;4825673;29;20081;-91
2022/10/09 10:14:23;;;;;;;1.77;0.30;;;14.90;99.90;;;;;;4864298;29;20391;-88
2022/10/09 10:21:50;;;;;;;;;;;15.20;99.90;;;;;;4841399;29;20599;-88
2022/10/09 10:28:49;;;;;;;2.38;0.35;;;15.40;99.90;;;;;;4804144;29;20045;-89
2022/10/09 10:31:56;;;;;;;3.08;0.35;;;15.50;99.90;;;;;;4805310;29;20420;-88
2022/10/09 10:42:32;;;;;;;1.38;0.30;;;16.60;99.90;;;;;;4924997;29;20210;-89
2022/10/09 10:46:07;;;;;;;1.38;0.40;;;15.90;99.90;;;;;;4919970;29;20080;-89
2022/10/09 10:53:57;;;;;;;4.85;0.40;;;16.30;99.90;;;;;;4909111;29;20055;-89
2022/10/09 10:56:45;;;;;;;1.75;0.30;;;16.10;99.90;;;;;;4908391;29;20094;-88
2022/10/09 11:00:33;;;;;;;1.98;0.30;;;16.10;99.90;;;;;;4902555;29;20076;-89
2022/10/09 11:03:33;;;;;;;3.42;0.50;;;16.10;99.90;;;;;;4909719;29;20048;-89
2022/10/09 11:07:15;;;;;;;2.25;0.40;;;16.30;99.90;;;;;;4899431;29;20065;-90
2022/10/09 11:29:34;;;;;;;3.13;0.40;;;16.30;99.90;;;;;;4900465;29;20132;-88
2022/10/09 11:32:49;;;;;;;1.85;0.47;;;16.30;99.90;;;;;;4901959;29;20056;-87
2022/10/09 11:36:15;;;;;;;1.42;0.28;;;16.40;99.90;;;;;;4845628;29;20582;-87
2022/10/09 11:39:23;;;;;;;2.33;0.35;;;16.50;99.90;;;;;;4787267;30;20059;-89
2022/10/09 11:43:00;;;;;;;1.05;0.30;;;16.70;99.90;;;;;;4787863;30;20059;-88
2022/10/09 12:01:53;;;;;;;;;;;;;;;;;;;;;
2022/10/09 12:05:09;;;;;;;;;;;;;;;;;;;;;
2022/10/09 12:08:43;;;;;;;0.68;0.20;;;17.70;99.90;;;;;;4750863;30;20045;-87
2022/10/09 12:12:00;;;;;;;1.40;0.20;;;17.70;99.90;;;;;;4748934;30;20136;-89
2022/10/09 12:19:07;;;;;;;0.50;0.30;;;17.90;99.90;;;;;;4822376;29;20049;-88
2022/10/09 12:22:36;;;;;;;0.68;0.20;;;17.90;99.90;;;;;;4819003;29;20562;-88
2022/10/09 12:26:06;;;;;;;0.50;0.20;;;18.10;99.90;;;;;;4821835;29;20050;-87
2022/10/09 12:29:23;;;;;;;1.88;0.28;;;18.10;99.90;;;;;;4817576;29;20164;-88
2022/10/09 12:32:40;;;;;;;0.82;0.20;;;18.20;99.90;;;;;;4819371;29;20085;-87
2022/10/09 12:36:15;;;;;;;0.57;0.10;;;18.10;99.90;;;;;;4822148;29;20121;-87
2022/10/09 13:20:09;;;;;;;1.52;0.32;;;18.20;99.90;;;;;;4824702;29;20185;-88
2022/10/09 13:23:48;;;;;;;1.65;0.32;;;18.20;99.90;;;;;;4768922;29;20147;-88
2022/10/09 13:27:14;;;;;;;1.23;0.30;;;18.20;99.90;;;;;;4714710;30;20234;-88
2022/10/09 13:31:01;;;;;;;1.08;0.30;;;18.30;99.90;;;;;;4715202;30;20127;-85
2022/10/09 13:34:27;;;;;;;;;;;;;;;;;;;;;
2022/10/09 13:37:43;;;;;;;;;;;18.30;99.30;;;;;;4707537;30;20139;-86
2022/10/09 13:41:14;;;;;;;1.45;0.47;;;18.30;99.90;;;;;;4714644;30;19984;-87
2022/10/09 13:55:52;;;;;;;1.55;0.50;;;18.20;99.60;;;;;;4722877;30;20585;-87
2022/10/09 13:59:24;;;;;;;3.90;0.50;;;18.30;99.40;;;;;;4711143;30;20108;-85
2022/10/09 14:03:08;;;;;;;2.58;0.52;;;18.30;99.00;;;;;;4737679;30;20063;-87
2022/10/09 14:06:21;;;;;;;3.38;0.50;;;18.20;99.90;;;;;;4738388;30;20498;-87
2022/10/09 14:09:48;;;;;;;1.13;0.30;;;18.10;99.90;;;;;;4755424;29;20406;-85
2022/10/09 14:16:43;;;;;;;1.10;0.40;;;17.70;99.90;;;;;;4736209;30;20087;-85
2022/10/09 14:20:01;;;;;;;2.15;0.50;;;17.40;99.90;;;;;;4736554;30;20088;-85
2022/10/09 14:26:50;;;;;;;;;;;;;;;;;;;;;
2022/10/09 14:30:17;;;;;;;1.88;0.32;;;17.10;99.90;;;;;;4735815;30;20064;-86
2022/10/09 14:33:57;;;;;;;2.00;0.20;;;17.00;99.90;;;;;;4751341;29;20058;-86
2022/10/09 15:10:14;;;;;;;1.05;0.32;;;15.80;99.90;;;;;;4881149;29;20052;-90
2022/10/09 15:13:29;;;;;;;1.02;0.30;;;15.70;99.90;;;;;;4880524;29;20524;-90
2022/10/09 15:16:47;;;;;;;1.65;0.40;;;15.60;99.90;;;;;;4881293;29;20057;-90
2022/10/09 15:20:11;;;;;;;2.17;0.38;;;15.50;99.90;;;;;;4866873;29;20109;-90
2022/10/09 15:23:50;;;;;;;1.33;0.30;;;15.40;99.90;;;;;;4881135;29;20395;-91
2022/10/09 15:27:32;;;;;;;3.08;0.30;;;15.30;99.90;;;;;;4880679;29;20427;-87
2022/10/09 15:49:31;;;;;;;2.55;0.40;;;14.70;99.90;;;;;;4858616;29;20126;-90
2022/10/09 15:52:10;;;;;;;3.70;0.55;;;14.60;99.90;;;;;;4834073;29;20054;-89
2022/10/09 15:54:45;;;;;;;1.88;0.60;;;14.40;99.90;;;;;;4858410;29;20060;-95
2022/10/09 15:58:34;;;;;;;2.47;0.40;;;14.40;99.90;;;;;;4861683;29;20125;-86
2022/10/09 16:01:52;;;;;;;1.48;0.40;;;14.30;99.90;;;;;;4804434;29;20067;-91
2022/10/09 16:05:21;;;;;;;2.38;0.47;;;14.20;99.90;;;;;;4803579;29;20055;-91
2022/10/09 16:08:31;;;;;;;2.15;0.50;;;14.10;99.90;;;;;;4859152;29;20103;-90
2022/10/09 16:11:46;;;;;;;;;;;;;;;;;;;;;
2022/10/09 16:18:30;;;;;;;1.13;0.28;;;13.80;99.90;;;;;;4867257;29;20049;-93
2022/10/09 16:22:21;;;;;;;;;;;;;;;;;;;;;
2022/10/09 16:25:54;;;;;;;0.60;0.40;;;13.60;99.90;;;;;;4808471;29;20554;-92
2022/10/09 16:29:14;;;;;;;1.67;0.50;;;13.60;99.90;;;;;;4757752;29;20105;-92
2022/10/09 16:39:51;;;;;;;;;;;;;;;;;;;;;
2022/10/09 16:42:43;;;;;;;1.55;0.50;;;13.10;99.90;;;;;;4774677;30;20117;-91
2022/10/09 16:45:36;;;;;;;1.55;0.55;;;13.10;99.90;;;;;;4771554;30;20092;-90
2022/10/09 16:48:11;;;;;;;2.88;0.50;;;12.90;99.90;;;;;;4772128;30;20059;-93
2022/10/09 16:51:17;;;;;;;3.38;0.45;;;12.90;99.90;;;;;;4776819;30;20059;-93
2022/10/09 16:54:57;;;;;;;4.05;0.60;;;12.80;99.90;;;;;;4761702;30;20212;-91
2022/10/09 16:58:00;;;;;;;3.90;0.50;;;12.70;99.90;;;;;;4720573;30;20113;-92
2022/10/09 17:01:43;;;;;;;1.95;0.50;;;12.50;99.90;;;;;;4731891;30;20164;-89
2022/10/09 17:05:17;;;;;;;;;;;;;;;;;;;;;
2022/10/09 17:08:44;;;;;;;1.67;0.50;;;12.30;99.90;;;;;;4712486;30;20091;-91
2022/10/09 17:52:45;;;;;;;1.88;0.60;;;10.90;99.90;;;;;;4704517;30;20056;-84
2022/10/09 18:13:13;;;;;;;;;;;;;;;;;;;;;
2022/10/09 18:19:48;;;;;;;1.05;0.50;;;10.20;99.90;;;;;;4859717;29;20055;-87
2022/10/09 18:22:47;;;;;;;2.15;0.50;;;10.10;99.90;;;;;;4818922;29;20065;-89
2022/10/09 18:45:17;;;;;;;1.00;0.70;;;9.70;99.90;;;;;;4774348;29;20194;-86
2022/10/09 18:51:14;;;;;;;1.35;0.65;;;9.60;99.90;;;;;;4771831;29;20058;-87
2022/10/09 18:53:48;;;;;;;1.73;0.80;;;9.50;99.90;;;;;;4783486;30;20631;-86
2022/10/09 18:56:19;;;;;;;1.52;0.70;;;9.50;99.90;;;;;;4769782;30;20071;-88
2022/10/09 18:58:51;;;;;;;1.70;0.73;;;9.40;99.90;;;;;;4763737;29;20508;-87
2022/10/09 19:01:19;;;;;;;1.45;0.63;;;9.00;99.90;;;;;;4803848;29;20484;-87
2022/10/09 19:03:59;;;;;;;0.90;0.70;;;9.30;99.90;;;;;;4820083;29;20061;-87
2022/10/09 19:06:26;;;;;;;4.85;0.73;;;9.30;99.90;;;;;;4855663;29;20407;-86
2022/10/09 19:08:56;;;;;;;3.17;0.70;;;8.40;99.90;;;;;;4841436;29;20360;-88
2022/10/09 19:11:39;;;;;;;1.45;0.70;;;9.10;99.90;;;;;;4837881;29;20049;-86
2022/10/09 19:14:14;;;;;;;3.25;1.02;;;9.10;99.90;;;;;;4842782;29;20045;-86
2022/10/09 19:17:02;;;;;;;3.30;0.85;;;9.00;99.90;;;;;;4830892;29;20045;-87
2022/10/09 19:19:46;;;;;;;1.10;0.80;;;8.90;99.90;;;;;;4848207;29;20057;-86
2022/10/09 19:22:12;;;;;;;1.35;0.80;;;8.80;99.90;;;;;;4869107;29;20056;-87
2022/10/09 19:25:01;;;;;;;1.40;0.75;;;8.80;99.90;;;;;;4880574;29;20053;-87
2022/10/09 19:27:30;;;;;;;2.75;0.85;;;8.30;99.90;;;;;;4871533;29;20053;-86
2022/10/09 19:29:57;;;;;;;1.25;0.80;;;8.60;99.90;;;;;;4871084;29;20052;-87
2022/10/09 19:32:29;;;;;;;2.63;0.90;;;8.60;99.90;;;;;;4890833;29;20047;-88
2022/10/09 19:35:01;;;;;;;1.40;0.80;;;8.50;99.90;;;;;;4898858;29;20115;-86
2022/10/09 19:37:36;;;;;;;1.00;0.90;;;8.50;99.90;;;;;;4871501;29;20057;-87
2022/10/09 19:40:03;;;;;;;3.83;0.70;;;8.50;99.90;;;;;;4867377;29;20071;-87
2022/10/09 19:42:48;;;;;;;1.20;0.60;;;8.40;99.90;;;;;;4897669;29;20395;-86
2022/10/09 19:45:15;;;;;;;1.63;0.90;;;8.30;99.90;;;;;;4867406;29;20208;-86
2022/10/09 19:47:42;;;;;;;1.40;0.93;;;8.30;99.90;;;;;;4895191;29;20460;-87
2022/10/09 19:50:08;;;;;;;1.50;0.85;;;8.20;99.90;;;;;;4866462;29;20052;-85
2022/10/09 19:52:34;;;;;;;2.20;0.95;;;8.20;99.90;;;;;;4884866;29;20383;-86
2022/10/09 19:55:03;;;;;;;2.95;0.80;;;8.10;99.90;;;;;;4873622;29;20370;-86
2022/10/09 19:57:36;;;;;;;2.10;0.75;;;8.10;99.90;;;;;;4890306;29;20048;-85
2022/10/09 20:00:07;;;;;;;1.48;0.70;;;8.00;99.90;;;;;;4890049;29;20413;-85
2022/10/09 20:02:35;;;;;;;1.48;0.82;;;8.00;99.90;;;;;;4890395;29;20418;-87
2022/10/09 20:05:07;;;;;;;1.00;0.75;;;8.00;99.90;;;;;;4872995;29;20135;-86
2022/10/09 20:32:06;;;;;;;2.63;0.80;;;7.80;99.90;;;;;;4818782;29;20062;-86
2022/10/09 20:39:47;;;;;;;3.72;0.80;;;7.80;99.90;;;;;;4771584;30;20566;-87
2022/10/09 20:55:06;;;;;;;;;;;;;;;;;;;;;
2022/10/09 21:06:00;;;;;;;1.58;0.90;;;7.50;99.90;;;;;;4796806;29;20053;-85
2022/10/09 21:09:30;;;;;;;1.67;0.80;;;7.40;99.90;;;;;;4828469;29;20063;-85
2022/10/09 21:12:25;;;;;;;1.95;0.75;;;7.40;99.90;;;;;;4783624;30;20142;-84
2022/10/09 21:16:00;;;;;;;0.80;0.75;;;7.40;99.90;;;;;;4719121;30;20071;-85
2022/10/09 21:36:32;;;;;;;2.15;0.75;;;7.50;99.90;;;;;;4710532;30;20443;-86
2022/10/09 21:40:49;;;;;;;1.63;0.90;;;7.50;99.90;;;;;;4712345;30;20084;-86
2022/10/09 22:03:51;;;;;;;1.58;0.70;;;7.40;99.90;;;;;;4875585;29;20120;-86
2022/10/09 22:07:14;;;;;;;1.03;0.70;;;7.30;99.90;;;;;;4868662;29;20049;-85
2022/10/09 22:10:43;;;;;;;1.27;0.77;;;7.30;99.90;;;;;;4868966;29;20046;-86
2022/10/09 22:25:22;;;;;;;1.38;0.75;;;7.10;99.90;;;;;;4813894;29;20366;-85
2022/10/09 22:32:05;;;;;;;1.73;0.90;;;7.00;99.90;;;;;;4818732;29;20111;-85
2022/10/09 22:35:08;;;;;;;2.42;0.77;;;6.50;99.90;;;;;;4818812;29;20057;-86
2022/10/09 22:38:44;;;;;;;;;;;;;;;;;;;;;
2022/10/09 22:45:41;;;;;;;1.92;0.98;;;7.00;99.90;;;;;;4820253;29;20058;-86
2022/10/09 22:49:03;;;;;;;;;;;;;;;;;;;;;
2022/10/09 22:52:45;;;;;;;1.45;0.80;;;7.00;99.90;;;;;;4882475;29;20059;-85
2022/10/09 23:07:49;;;;;;;;;;;;;;;;;;;;;
2022/10/09 23:15:01;;;;;;;;;;;;;;;;;;;;;
2022/10/09 23:18:52;;;;;;;;;;;;;;;;;;;;;
2022/10/09 23:46:05;;;;;;;1.73;0.80;;;6.70;99.90;;;;;;4877247;29;20070;-86
2022/10/09 23:58:12;;;;;;;;;;;;;;;;;;;;;
